Time;durP1;ratioP1;P1;durP2;ratioP2;P2;SDS_P1;SDS_P2;PMS_P1;PMS_P2;Temp;Humidity;BMP_temperature;BMP_pressure;BME280_temperature;BME280_humidity;BME280_pressure;Samples;Min_cycle;Max_cycle;Signal;HPM_P1;HPM_P2
2021/05/31 00:02:02;;;;;;;;;;;11.80;94.80;;;;;;5046957;28;20481;-67
2021/05/31 00:04:27;;;;;;;2.15;1.20;;;11.80;95.10;;;;;;5047762;28;19904;-67
2021/05/31 00:06:55;;;;;;;;;;;11.80;94.90;;;;;;5048103;28;20020;-68
2021/05/31 00:09:21;;;;;;;4.78;1.20;;;11.70;94.80;;;;;;5047718;28;19966;-67
2021/05/31 00:11:47;;;;;;;;;;;11.70;95.40;;;;;;5047854;28;20029;-66
2021/05/31 00:14:13;;;;;;;2.47;1.10;;;11.60;95.30;;;;;;5047828;28;19905;-67
2021/05/31 00:16:38;;;;;;;;;;;11.60;95.50;;;;;;5047626;28;20037;-67
2021/05/31 00:19:05;;;;;;;4.03;1.30;;;11.60;95.90;;;;;;5046602;28;19931;-67
2021/05/31 00:21:31;;;;;;;3.17;1.13;;;11.60;95.80;;;;;;5047125;28;20108;-68
2021/05/31 00:23:57;;;;;;;1.73;1.13;;;11.60;95.80;;;;;;5047003;28;20499;-68
2021/05/31 00:26:23;;;;;;;;;;;11.60;95.90;;;;;;5047546;28;20597;-68
2021/05/31 00:28:48;;;;;;;2.13;1.20;;;11.60;96.10;;;;;;5047173;28;19931;-67
2021/05/31 00:31:15;;;;;;;;;;;11.60;96.30;;;;;;5047292;28;20367;-69
2021/05/31 00:33:41;;;;;;;1.80;1.00;;;11.60;96.30;;;;;;5047445;28;19909;-67
2021/05/31 00:36:07;;;;;;;;;;;11.60;96.30;;;;;;5047694;28;20052;-67
2021/05/31 00:38:34;;;;;;;3.88;1.60;;;11.60;96.40;;;;;;5046765;28;19905;-66
2021/05/31 00:41:01;;;;;;;9.23;1.30;;;11.60;96.40;;;;;;5046133;28;20029;-68
2021/05/31 00:43:34;;;;;;;2.58;1.20;;;11.50;96.40;;;;;;5047048;28;20133;-67
2021/05/31 00:46:04;;;;;;;5.55;1.67;;;11.50;96.60;;;;;;5047046;28;20024;-67
2021/05/31 00:48:30;;;;;;;3.08;1.48;;;11.50;96.50;;;;;;5046971;28;20054;-67
2021/05/31 00:51:01;;;;;;;;;;;11.60;96.30;;;;;;5045504;28;20021;-67
2021/05/31 00:53:27;;;;;;;4.05;1.30;;;11.50;96.20;;;;;;5047067;28;19912;-66
2021/05/31 00:55:53;;;;;;;3.40;1.00;;;11.50;96.20;;;;;;5046325;28;20119;-67
2021/05/31 00:58:19;;;;;;;;;;;11.50;96.10;;;;;;5047194;28;20033;-67
2021/05/31 01:00:45;;;;;;;2.10;1.08;;;11.50;96.00;;;;;;5045612;28;19948;-67
2021/05/31 01:03:11;;;;;;;4.50;1.10;;;11.50;95.90;;;;;;5045601;28;20017;-67
2021/05/31 01:05:38;;;;;;;3.88;1.13;;;11.60;95.80;;;;;;5046426;28;20036;-66
2021/05/31 01:08:09;;;;;;;2.08;1.25;;;11.60;95.60;;;;;;5046799;28;20619;-67
2021/05/31 01:10:43;;;;;;;2.45;1.55;;;11.60;95.30;;;;;;5046295;28;20029;-66
2021/05/31 01:13:24;;;;;;;3.17;2.00;;;11.60;95.30;;;;;;5046461;28;20143;-67
2021/05/31 01:16:23;;;;;;;4.18;1.30;;;11.60;95.60;;;;;;5040945;28;20040;-67
2021/05/31 01:18:50;;;;;;;3.72;1.70;;;11.60;95.60;;;;;;5045785;28;20079;-69
2021/05/31 01:21:44;;;;;;;2.67;1.20;;;11.60;95.40;;;;;;5046545;28;20078;-66
2021/05/31 01:24:35;;;;;;;2.53;1.48;;;11.70;94.60;;;;;;5046090;28;20083;-67
2021/05/31 01:27:10;;;;;;;5.70;1.15;;;11.70;94.90;;;;;;5046423;28;20052;-67
2021/05/31 01:29:38;;;;;;;1.63;1.00;;;11.60;95.00;;;;;;5046259;28;20121;-68
2021/05/31 01:32:05;;;;;;;2.13;1.15;;;11.60;95.10;;;;;;5045815;28;20032;-67
2021/05/31 01:34:35;;;;;;;4.00;1.20;;;11.60;95.60;;;;;;5045913;28;20798;-67
2021/05/31 01:37:05;;;;;;;3.63;1.25;;;11.60;95.60;;;;;;5046140;28;20037;-67
2021/05/31 01:39:34;;;;;;;3.03;1.40;;;11.50;95.50;;;;;;5045665;28;20563;-67
2021/05/31 01:42:00;;;;;;;4.22;1.98;;;11.50;95.10;;;;;;5045798;28;20035;-67
2021/05/31 01:44:26;;;;;;;;;;;11.60;95.20;;;;;;5046739;28;20025;-67
2021/05/31 01:46:52;;;;;;;2.03;0.77;;;11.50;95.30;;;;;;5046272;28;19942;-67
2021/05/31 01:49:19;;;;;;;4.00;1.20;;;11.50;95.30;;;;;;5044748;28;20094;-67
2021/05/31 01:51:46;;;;;;;1.83;1.02;;;11.60;95.10;;;;;;5046336;28;20032;-67
2021/05/31 01:54:14;;;;;;;3.40;1.20;;;11.60;95.20;;;;;;5045478;28;20108;-66
2021/05/31 01:56:42;;;;;;;2.78;1.40;;;11.60;95.00;;;;;;5045924;28;20043;-67
2021/05/31 01:59:08;;;;;;;3.85;1.05;;;11.70;95.30;;;;;;5045730;28;20060;-68
2021/05/31 02:01:34;;;;;;;4.40;1.27;;;11.60;95.10;;;;;;5046079;28;20493;-67
2021/05/31 02:04:00;;;;;;;;;;;11.60;94.80;;;;;;5045983;28;20021;-66
2021/05/31 02:06:26;;;;;;;2.33;1.58;;;11.60;94.50;;;;;;5046022;28;19909;-67
2021/05/31 02:08:52;;;;;;;;;;;11.60;94.20;;;;;;5045518;28;20397;-68
2021/05/31 02:11:45;;;;;;;1.80;1.00;;;11.60;93.50;;;;;;5045923;28;19980;-67
2021/05/31 02:14:42;;;;;;;3.83;1.35;;;11.70;93.60;;;;;;5043574;28;20033;-68
2021/05/31 02:17:31;;;;;;;2.72;1.73;;;11.70;93.90;;;;;;5049784;28;20037;-67
2021/05/31 02:20:06;;;;;;;3.08;1.40;;;11.70;93.40;;;;;;5049410;28;20052;-68
2021/05/31 02:22:37;;;;;;;3.95;1.02;;;11.70;93.10;;;;;;5049641;28;20087;-67
2021/05/31 02:25:04;;;;;;;3.03;1.35;;;11.70;92.70;;;;;;5048970;28;20033;-67
2021/05/31 02:27:31;;;;;;;2.05;0.98;;;11.70;92.60;;;;;;5049684;28;20044;-68
2021/05/31 02:30:01;;;;;;;2.58;0.95;;;11.80;91.70;;;;;;5048154;28;20463;-66
2021/05/31 02:32:31;;;;;;;2.33;0.80;;;11.90;91.00;;;;;;5049680;28;20498;-67
2021/05/31 02:34:57;;;;;;;1.60;0.90;;;11.90;90.60;;;;;;5047538;28;20033;-67
2021/05/31 02:37:39;;;;;;;4.40;1.10;;;12.00;90.60;;;;;;5048208;28;20386;-67
2021/05/31 02:40:07;;;;;;;3.55;1.13;;;12.10;90.50;;;;;;5049081;28;20221;-67
2021/05/31 02:42:53;;;;;;;5.93;1.23;;;12.20;90.10;;;;;;5049420;28;20041;-66
2021/05/31 02:45:22;;;;;;;2.67;1.20;;;12.20;89.60;;;;;;5049287;28;20472;-68
2021/05/31 02:47:48;;;;;;;2.40;1.10;;;12.20;89.30;;;;;;5049492;28;20509;-67
2021/05/31 02:50:13;;;;;;;;;;;12.30;89.20;;;;;;5049749;28;20032;-67
2021/05/31 02:52:42;;;;;;;3.35;1.67;;;12.30;89.20;;;;;;5048873;28;19905;-67
2021/05/31 02:55:13;;;;;;;3.80;1.15;;;12.20;90.00;;;;;;5048037;28;20083;-67
2021/05/31 02:57:39;;;;;;;2.78;1.00;;;12.20;88.70;;;;;;5049123;28;20087;-67
2021/05/31 03:00:08;;;;;;;2.70;1.67;;;12.30;88.50;;;;;;5049025;28;20029;-67
2021/05/31 03:02:34;;;;;;;6.10;1.17;;;12.30;88.70;;;;;;5048700;28;20511;-68
2021/05/31 03:04:59;;;;;;;;;;;12.30;88.50;;;;;;5049259;28;20033;-67
2021/05/31 03:07:25;;;;;;;5.28;0.90;;;12.30;87.50;;;;;;5049062;28;19940;-67
2021/05/31 03:09:50;;;;;;;;;;;12.30;87.90;;;;;;5048529;28;20089;-67
2021/05/31 03:12:16;;;;;;;2.65;1.10;;;12.40;87.70;;;;;;5048904;28;19991;-67
2021/05/31 03:14:42;;;;;;;;;;;12.30;87.60;;;;;;5048969;28;20065;-66
2021/05/31 03:17:07;;;;;;;5.18;0.95;;;12.40;87.40;;;;;;5047389;28;19920;-67
2021/05/31 03:19:33;;;;;;;;;;;12.40;87.90;;;;;;5048933;28;20405;-67
2021/05/31 03:21:58;;;;;;;3.05;0.88;;;12.40;86.90;;;;;;5048758;28;19935;-67
2021/05/31 03:24:24;;;;;;;;;;;12.40;87.20;;;;;;5048811;28;20029;-67
2021/05/31 03:26:49;;;;;;;8.77;1.95;;;12.50;86.00;;;;;;5047330;28;19908;-67
2021/05/31 03:29:15;;;;;;;;;;;12.50;86.50;;;;;;5048900;28;20055;-67
2021/05/31 03:31:41;;;;;;;12.02;4.45;;;12.50;85.90;;;;;;5048137;28;20575;-67
2021/05/31 03:34:06;;;;;;;;;;;12.50;86.20;;;;;;5047134;28;20025;-68
2021/05/31 03:36:32;;;;;;;3.05;1.95;;;12.60;85.80;;;;;;5047096;28;19938;-67
2021/05/31 03:38:57;;;;;;;;;;;12.60;85.60;;;;;;5047211;28;20028;-68
2021/05/31 03:41:23;;;;;;;6.25;1.30;;;12.70;85.50;;;;;;5047844;28;19909;-68
2021/05/31 03:43:49;;;;;;;;;;;12.70;84.80;;;;;;5048688;28;20025;-68
2021/05/31 03:46:14;;;;;;;1.67;0.80;;;12.70;85.10;;;;;;5048249;28;19909;-68
2021/05/31 03:48:40;;;;;;;;;;;12.70;85.00;;;;;;5048162;28;20673;-66
2021/05/31 03:51:09;;;;;;;5.10;0.90;;;12.80;85.40;;;;;;5047711;28;19938;-68
2021/05/31 03:53:39;;;;;;;2.17;0.98;;;12.80;84.30;;;;;;5046611;28;20379;-68
2021/05/31 03:56:06;;;;;;;2.13;1.15;;;12.80;84.30;;;;;;5047464;28;20116;-67
2021/05/31 03:58:32;;;;;;;4.38;1.00;;;12.90;84.80;;;;;;5047861;28;20455;-67
2021/05/31 04:00:59;;;;;;;9.40;1.00;;;12.90;84.00;;;;;;5047376;28;20029;-67
2021/05/31 04:03:25;;;;;;;4.15;1.00;;;12.90;84.30;;;;;;5047844;28;20021;-68
2021/05/31 04:06:56;;;;;;;5.93;1.00;;;12.90;84.20;;;;;;5047810;28;20025;-67
2021/05/31 04:11:40;;;;;;;8.10;1.83;;;13.00;83.40;;;;;;5048056;28;20075;-68
2021/05/31 04:14:14;;;;;;;2.55;1.48;;;13.00;82.80;;;;;;5047302;28;20017;-68
2021/05/31 04:16:42;;;;;;;2.30;1.25;;;13.20;83.20;;;;;;5047516;28;20609;-68
2021/05/31 04:19:10;;;;;;;2.30;1.05;;;13.20;83.10;;;;;;5047519;28;20025;-67
2021/05/31 04:21:37;;;;;;;1.48;1.08;;;13.10;83.10;;;;;;5047440;28;20036;-68
2021/05/31 04:24:03;;;;;;;5.30;1.15;;;13.20;82.10;;;;;;5046870;28;20082;-68
2021/05/31 04:26:30;;;;;;;4.10;1.00;;;13.20;82.10;;;;;;5047407;28;20452;-68
2021/05/31 04:28:56;;;;;;;7.75;1.02;;;13.30;81.80;;;;;;5045246;28;20409;-67
2021/05/31 04:31:23;;;;;;;;;;;13.30;81.10;;;;;;5047141;28;20045;-68
2021/05/31 04:33:49;;;;;;;1.38;0.82;;;13.30;81.10;;;;;;5047280;28;20298;-67
2021/05/31 04:36:14;;;;;;;;;;;13.30;81.30;;;;;;5045755;28;20509;-67
2021/05/31 04:38:40;;;;;;;2.65;1.20;;;13.20;82.00;;;;;;5045990;28;20305;-67
2021/05/31 04:41:05;;;;;;;;;;;13.20;81.70;;;;;;5045651;28;20379;-68
2021/05/31 04:43:32;;;;;;;3.80;0.85;;;13.20;81.60;;;;;;5046553;28;20003;-67
2021/05/31 04:45:57;;;;;;;3.08;0.98;;;13.20;81.80;;;;;;5046631;28;20082;-67
2021/05/31 04:48:23;;;;;;;;;;;13.20;82.00;;;;;;5047458;28;20025;-67
2021/05/31 04:50:56;;;;;;;2.08;0.77;;;13.20;81.90;;;;;;5046441;28;19909;-67
2021/05/31 04:53:22;;;;;;;4.78;1.05;;;13.30;82.00;;;;;;5046248;28;20044;-68
2021/05/31 04:55:48;;;;;;;3.05;0.85;;;13.30;81.60;;;;;;5046493;28;20033;-67
2021/05/31 04:58:13;;;;;;;;;;;13.40;80.80;;;;;;5047287;28;20035;-67
2021/05/31 05:00:39;;;;;;;3.45;1.00;;;13.40;81.50;;;;;;5046521;28;19905;-68
2021/05/31 05:03:04;;;;;;;;;;;13.40;81.60;;;;;;5046674;28;20223;-66
2021/05/31 05:05:30;;;;;;;5.03;1.33;;;13.50;81.60;;;;;;5046624;28;20379;-68
2021/05/31 05:07:56;;;;;;;8.60;0.90;;;13.50;81.20;;;;;;5046072;28;20039;-69
2021/05/31 05:10:22;;;;;;;;;;;13.50;80.60;;;;;;5046957;28;20549;-68
2021/05/31 05:12:50;;;;;;;4.43;1.30;;;13.50;80.40;;;;;;5046099;28;19909;-68
2021/05/31 05:15:19;;;;;;;2.92;1.42;;;13.50;81.00;;;;;;5046531;28;20025;-68
2021/05/31 05:17:48;;;;;;;3.45;0.93;;;13.70;77.70;;;;;;5046365;28;20497;-68
2021/05/31 05:20:18;;;;;;;3.92;1.08;;;13.70;78.60;;;;;;5046640;28;20501;-68
2021/05/31 05:22:43;;;;;;;2.85;0.80;;;13.80;77.10;;;;;;5046090;28;20074;-68
2021/05/31 05:25:09;;;;;;;;;;;13.80;77.60;;;;;;5046512;28;20029;-67
2021/05/31 05:27:36;;;;;;;1.63;0.73;;;13.80;77.20;;;;;;5046232;28;20443;-69
2021/05/31 05:30:04;;;;;;;2.35;1.05;;;13.80;78.40;;;;;;5046088;28;20056;-69
2021/05/31 05:32:29;;;;;;;2.85;1.00;;;13.80;79.00;;;;;;5045953;28;20405;-69
2021/05/31 05:35:04;;;;;;;;;;;13.80;79.00;;;;;;5046488;28;20036;-69
2021/05/31 05:37:31;;;;;;;2.45;1.08;;;13.80;79.60;;;;;;5045934;28;19908;-68
2021/05/31 05:45:27;;;;;;;2.10;0.77;;;13.80;80.00;;;;;;5046118;28;20516;-69
2021/05/31 05:47:53;;;;;;;3.20;0.88;;;13.70;79.70;;;;;;5044701;28;20311;-69
2021/05/31 05:50:21;;;;;;;;;;;13.80;79.90;;;;;;5046488;28;20037;-68
2021/05/31 05:52:48;;;;;;;2.13;0.70;;;13.70;80.30;;;;;;5045628;28;19999;-67
2021/05/31 05:55:14;;;;;;;3.40;1.08;;;13.90;79.40;;;;;;5045781;28;20770;-68
2021/05/31 05:57:41;;;;;;;2.97;1.50;;;13.90;79.20;;;;;;5046166;28;20094;-68
2021/05/31 06:00:11;;;;;;;3.13;0.65;;;13.90;79.90;;;;;;5045671;28;20053;-69
2021/05/31 06:02:36;;;;;;;2.40;1.00;;;14.00;79.90;;;;;;5046154;28;20770;-69
2021/05/31 06:05:02;;;;;;;;;;;14.00;79.40;;;;;;5044961;28;20508;-68
2021/05/31 06:07:28;;;;;;;3.03;1.20;;;14.00;79.60;;;;;;5044047;28;20046;-69
2021/05/31 06:09:54;;;;;;;;;;;14.10;78.50;;;;;;5046075;28;20090;-68
2021/05/31 06:12:19;;;;;;;2.72;0.80;;;14.00;78.30;;;;;;5046066;28;20312;-68
2021/05/31 06:14:45;;;;;;;;;;;13.90;78.80;;;;;;5045990;28;20162;-68
2021/05/31 06:17:11;;;;;;;4.13;1.55;;;14.00;78.10;;;;;;5045714;28;19909;-67
2021/05/31 06:19:36;;;;;;;;;;;14.10;76.80;;;;;;5046422;28;20040;-67
2021/05/31 06:22:02;;;;;;;2.47;0.90;;;14.10;76.90;;;;;;5045196;28;20126;-68
2021/05/31 06:24:28;;;;;;;4.80;1.10;;;14.20;76.90;;;;;;5045830;28;20401;-68
2021/05/31 06:26:53;;;;;;;;;;;14.20;76.00;;;;;;5045996;28;20032;-68
2021/05/31 06:29:19;;;;;;;3.65;1.33;;;14.30;76.30;;;;;;5045327;28;19921;-67
2021/05/31 06:31:45;;;;;;;2.10;0.88;;;14.40;76.30;;;;;;5045337;28;20188;-68
2021/05/31 06:34:10;;;;;;;;;;;14.40;75.40;;;;;;5045906;28;20104;-67
2021/05/31 06:36:40;;;;;;;5.38;0.80;;;14.60;75.20;;;;;;5045134;28;19917;-67
2021/05/31 06:39:08;;;;;;;3.20;1.00;;;14.70;73.80;;;;;;5044583;28;20167;-68
2021/05/31 06:41:35;;;;;;;7.20;2.17;;;14.70;74.10;;;;;;5045536;28;20025;-68
2021/05/31 06:44:01;;;;;;;3.63;1.30;;;14.70;73.00;;;;;;5045388;28;20032;-67
2021/05/31 06:46:28;;;;;;;1.67;1.02;;;14.80;73.00;;;;;;5045550;28;20029;-68
2021/05/31 06:48:54;;;;;;;1.45;0.90;;;15.00;72.90;;;;;;5043628;28;20025;-67
2021/05/31 06:51:19;;;;;;;;;;;14.90;72.80;;;;;;5045171;28;20537;-71
2021/05/31 06:53:45;;;;;;;6.43;1.13;;;14.90;72.50;;;;;;5044166;28;19905;-67
2021/05/31 06:56:11;;;;;;;3.28;1.00;;;14.90;72.40;;;;;;5045297;28;20504;-67
2021/05/31 06:58:37;;;;;;;;;;;15.00;71.70;;;;;;5044490;28;20506;-66
2021/05/31 07:01:03;;;;;;;5.40;1.40;;;15.00;72.00;;;;;;5046483;28;19915;-67
2021/05/31 07:03:29;;;;;;;6.13;1.13;;;15.00;72.00;;;;;;5047773;28;20111;-66
2021/05/31 07:05:54;;;;;;;1.50;0.90;;;15.00;70.50;;;;;;5048145;28;20397;-67
2021/05/31 07:08:23;;;;;;;4.57;1.10;;;15.10;71.40;;;;;;5048776;28;20028;-67
2021/05/31 07:10:50;;;;;;;5.32;1.80;;;15.20;71.90;;;;;;5047309;28;20351;-66
2021/05/31 07:13:18;;;;;;;4.22;1.38;;;15.20;70.90;;;;;;5047331;28;20543;-66
2021/05/31 07:15:44;;;;;;;3.40;1.08;;;15.20;71.20;;;;;;5048386;28;20045;-66
2021/05/31 07:18:12;;;;;;;;;;;15.20;71.80;;;;;;5047395;28;20529;-66
2021/05/31 07:20:38;;;;;;;9.05;1.17;;;15.20;71.30;;;;;;5047775;28;20518;-67
2021/05/31 07:23:04;;;;;;;;;;;15.30;70.60;;;;;;5049115;28;20029;-66
2021/05/31 07:25:29;;;;;;;4.55;1.20;;;15.30;68.10;;;;;;5048257;28;20427;-65
2021/05/31 07:27:57;;;;;;;;;;;15.30;68.90;;;;;;5048650;28;20158;-66
2021/05/31 07:30:23;;;;;;;5.57;1.02;;;15.30;67.90;;;;;;5048487;28;20614;-66
2021/05/31 07:32:49;;;;;;;2.88;1.15;;;15.20;68.80;;;;;;5048463;28;20118;-66
2021/05/31 07:35:15;;;;;;;;;;;15.20;68.90;;;;;;5048777;28;20505;-66
2021/05/31 07:37:40;;;;;;;2.25;1.00;;;15.20;69.90;;;;;;5048150;28;20361;-67
2021/05/31 07:40:07;;;;;;;;;;;15.20;70.30;;;;;;5048275;28;20038;-66
2021/05/31 07:42:33;;;;;;;5.57;1.92;;;15.20;69.80;;;;;;5046970;28;19919;-66
2021/05/31 07:44:59;;;;;;;;;;;15.20;70.20;;;;;;5049006;28;20029;-66
2021/05/31 07:47:24;;;;;;;6.55;1.50;;;15.20;70.90;;;;;;5046552;28;19912;-67
2021/05/31 07:49:50;;;;;;;;;;;15.20;71.50;;;;;;5048459;28;20391;-65
2021/05/31 07:52:24;;;;;;;2.67;1.60;;;15.20;71.10;;;;;;5046553;28;20277;-64
2021/05/31 07:54:53;;;;;;;8.25;1.15;;;15.20;71.40;;;;;;5047971;28;20024;-65
2021/05/31 07:57:21;;;;;;;4.95;1.42;;;15.30;70.60;;;;;;5047767;28;20033;-66
2021/05/31 07:59:47;;;;;;;3.38;1.58;;;15.40;69.90;;;;;;5048244;28;20021;-66
2021/05/31 08:02:13;;;;;;;9.07;1.35;;;15.40;70.50;;;;;;5047649;28;20072;-66
2021/05/31 08:04:39;;;;;;;3.17;1.50;;;15.40;70.40;;;;;;5047378;28;20051;-65
2021/05/31 08:07:05;;;;;;;7.70;2.10;;;15.50;70.60;;;;;;5046841;28;20025;-66
2021/05/31 08:09:31;;;;;;;3.67;1.30;;;15.60;69.40;;;;;;5047754;28;20036;-66
2021/05/31 08:11:57;;;;;;;1.90;0.80;;;15.70;68.10;;;;;;5047536;28;20594;-66
2021/05/31 08:14:24;;;;;;;4.95;1.15;;;15.80;67.90;;;;;;5047678;28;20029;-65
2021/05/31 08:16:50;;;;;;;2.72;0.80;;;15.80;67.20;;;;;;5047097;28;20040;-67
2021/05/31 08:19:16;;;;;;;4.43;1.10;;;15.90;68.10;;;;;;5047516;28;20037;-66
2021/05/31 08:21:43;;;;;;;3.63;1.63;;;16.00;68.60;;;;;;5046963;28;20509;-66
2021/05/31 08:24:09;;;;;;;4.53;0.90;;;16.00;69.20;;;;;;5046164;28;20054;-67
2021/05/31 08:26:37;;;;;;;2.35;0.88;;;16.20;67.00;;;;;;5047880;28;20431;-67
2021/05/31 08:29:02;;;;;;;6.50;1.05;;;16.30;65.40;;;;;;5046778;28;20079;-65
2021/05/31 08:31:29;;;;;;;4.95;1.35;;;16.40;64.00;;;;;;5047254;28;20624;-66
2021/05/31 08:33:55;;;;;;;3.58;0.90;;;16.40;62.80;;;;;;5044800;28;20083;-66
2021/05/31 08:36:21;;;;;;;3.38;1.00;;;16.70;61.40;;;;;;5043892;28;20440;-67
2021/05/31 08:38:47;;;;;;;2.67;0.80;;;16.70;61.60;;;;;;5042527;28;20048;-66
2021/05/31 08:41:13;;;;;;;4.18;1.33;;;16.70;59.90;;;;;;5044101;28;20021;-67
2021/05/31 08:43:39;;;;;;;3.72;1.00;;;16.60;61.30;;;;;;5044075;28;20028;-67
2021/05/31 08:46:05;;;;;;;3.42;1.15;;;16.70;61.80;;;;;;5043763;28;20187;-66
2021/05/31 08:48:31;;;;;;;6.38;1.20;;;16.70;62.30;;;;;;5045633;28;20028;-66
2021/05/31 08:50:57;;;;;;;8.38;2.17;;;16.90;62.30;;;;;;5046315;28;20086;-66
2021/05/31 08:53:23;;;;;;;3.03;1.33;;;17.00;60.40;;;;;;5046668;28;20028;-67
2021/05/31 08:55:49;;;;;;;2.95;1.08;;;17.00;60.20;;;;;;5046494;28;20040;-66
2021/05/31 08:58:14;;;;;;;1.75;0.90;;;17.10;59.80;;;;;;5042015;28;20017;-66
2021/05/31 09:00:40;;;;;;;3.72;0.80;;;17.20;59.90;;;;;;5045215;28;20025;-66
2021/05/31 09:03:11;;;;;;;3.17;1.45;;;17.20;60.10;;;;;;5041906;28;20050;-67
2021/05/31 09:05:44;;;;;;;2.90;1.10;;;17.30;60.80;;;;;;5030479;28;20033;-66
2021/05/31 09:08:11;;;;;;;4.10;1.30;;;17.30;59.70;;;;;;5042651;28;20025;-67
2021/05/31 09:10:47;;;;;;;6.10;1.42;;;17.40;59.40;;;;;;5045059;28;20041;-67
2021/05/31 09:13:31;;;;;;;1.60;1.00;;;17.50;59.90;;;;;;5043644;28;20032;-66
2021/05/31 09:16:06;;;;;;;3.95;2.10;;;17.50;58.40;;;;;;5043594;28;20052;-67
2021/05/31 09:18:33;;;;;;;2.45;1.10;;;17.60;58.30;;;;;;5043726;28;20028;-67
2021/05/31 09:21:14;;;;;;;5.57;1.20;;;17.60;58.50;;;;;;5042791;28;20065;-67
2021/05/31 09:23:39;;;;;;;3.25;1.13;;;17.70;57.50;;;;;;5042407;28;20037;-66
2021/05/31 09:26:06;;;;;;;6.82;1.33;;;17.70;57.10;;;;;;5045816;28;20401;-67
2021/05/31 09:28:32;;;;;;;3.55;1.58;;;17.70;57.90;;;;;;5043064;28;20457;-67
2021/05/31 09:30:58;;;;;;;3.83;1.35;;;17.70;58.20;;;;;;5043438;28;20053;-67
2021/05/31 09:33:23;;;;;;;5.22;1.13;;;17.70;61.00;;;;;;5043905;28;20036;-66
2021/05/31 09:35:50;;;;;;;5.18;1.25;;;17.90;56.60;;;;;;5041677;28;20434;-66
2021/05/31 09:38:18;;;;;;;4.20;1.08;;;18.10;57.50;;;;;;5043537;28;20031;-67
2021/05/31 09:40:56;;;;;;;2.70;1.38;;;18.10;55.10;;;;;;5043279;28;20729;-65
2021/05/31 09:43:26;;;;;;;1.58;0.82;;;18.10;55.50;;;;;;5043786;28;20029;-67
2021/05/31 09:45:52;;;;;;;3.92;1.13;;;18.20;56.50;;;;;;5042109;28;20539;-67
2021/05/31 09:48:17;;;;;;;4.45;1.30;;;18.40;54.60;;;;;;5042483;28;20013;-65
2021/05/31 09:50:57;;;;;;;2.10;0.80;;;18.60;53.60;;;;;;5042485;28;20021;-67
2021/05/31 09:53:23;;;;;;;6.82;1.15;;;18.80;54.30;;;;;;5041351;28;20027;-67
2021/05/31 09:55:49;;;;;;;3.47;0.98;;;18.90;53.40;;;;;;5043111;28;20232;-67
2021/05/31 09:58:17;;;;;;;2.42;0.90;;;19.30;54.90;;;;;;5040574;28;20032;-68
2021/05/31 10:00:54;;;;;;;3.25;1.10;;;19.80;51.80;;;;;;5042922;28;20594;-66
2021/05/31 10:09:03;;;;;;;1.20;0.70;;;20.50;46.60;;;;;;5046379;28;20087;-66
2021/05/31 10:11:04;;;;;;;4.68;1.20;;;20.50;46.70;;;;;;5048403;28;20037;-67
2021/05/31 10:13:30;;;;;;;4.85;1.00;;;20.70;47.40;;;;;;5046037;28;20764;-67
2021/05/31 10:16:01;;;;;;;5.15;1.00;;;20.60;46.30;;;;;;5045677;28;20147;-66
2021/05/31 10:18:30;;;;;;;1.42;0.73;;;20.80;46.70;;;;;;5046044;28;20057;-67
2021/05/31 10:20:57;;;;;;;1.52;0.90;;;20.80;44.10;;;;;;5044084;28;20041;-68
2021/05/31 10:23:23;;;;;;;2.40;0.90;;;20.70;43.20;;;;;;5044421;28;20021;-68
2021/05/31 10:25:55;;;;;;;4.88;1.30;;;20.80;44.40;;;;;;5045923;28;20087;-67
2021/05/31 10:28:23;;;;;;;3.17;0.93;;;21.10;44.60;;;;;;5046021;28;20029;-66
2021/05/31 10:30:58;;;;;;;4.55;0.90;;;21.20;44.00;;;;;;5045039;28;20052;-66
2021/05/31 10:33:27;;;;;;;1.45;0.65;;;21.40;43.80;;;;;;5045555;28;20409;-66
2021/05/31 10:35:58;;;;;;;5.55;1.13;;;21.40;44.50;;;;;;5048460;28;20076;-64
2021/05/31 10:38:27;;;;;;;3.67;1.05;;;21.40;43.80;;;;;;5049213;28;20017;-66
2021/05/31 10:40:55;;;;;;;7.70;1.40;;;21.60;44.10;;;;;;5048822;28;20045;-66
2021/05/31 10:43:22;;;;;;;3.72;0.85;;;21.60;44.40;;;;;;5049430;28;20024;-64
2021/05/31 10:45:59;;;;;;;2.50;1.17;;;21.50;45.00;;;;;;5049143;28;20082;-66
2021/05/31 10:48:25;;;;;;;2.13;1.10;;;21.40;43.10;;;;;;5048931;28;20043;-67
2021/05/31 10:50:59;;;;;;;3.78;1.10;;;21.20;44.10;;;;;;5048630;28;20028;-66
2021/05/31 10:53:31;;;;;;;7.63;0.90;;;21.10;44.70;;;;;;5047553;28;20690;-67
2021/05/31 10:56:05;;;;;;;8.02;1.20;;;21.00;43.40;;;;;;5048991;28;20036;-67
2021/05/31 10:58:40;;;;;;;11.45;1.42;;;20.80;43.60;;;;;;5048778;28;20810;-67
2021/05/31 11:01:08;;;;;;;1.75;0.73;;;20.50;43.00;;;;;;5048894;28;20107;-67
2021/05/31 11:04:10;;;;;;;7.90;1.05;;;20.20;43.70;;;;;;5048603;28;20029;-66
2021/05/31 11:06:39;;;;;;;1.88;0.70;;;20.00;43.10;;;;;;5044615;28;20532;-66
2021/05/31 11:09:08;;;;;;;3.50;1.05;;;19.90;43.90;;;;;;5047232;28;20032;-67
2021/05/31 11:11:39;;;;;;;4.78;1.00;;;19.80;45.60;;;;;;5048620;28;20021;-66
2021/05/31 11:14:06;;;;;;;3.05;1.13;;;19.80;46.40;;;;;;5048898;28;20037;-66
2021/05/31 11:16:50;;;;;;;3.33;1.40;;;19.90;46.50;;;;;;5048441;28;20033;-66
2021/05/31 11:19:15;;;;;;;7.82;1.10;;;20.00;47.00;;;;;;5047989;28;20501;-66
2021/05/31 11:21:44;;;;;;;4.35;1.20;;;20.20;47.70;;;;;;5048589;28;20036;-66
2021/05/31 11:24:19;;;;;;;2.80;1.20;;;20.60;49.90;;;;;;5047506;28;20063;-66
2021/05/31 11:26:48;;;;;;;1.58;0.77;;;20.80;44.50;;;;;;5048194;28;20033;-67
2021/05/31 11:29:14;;;;;;;3.35;0.82;;;21.10;42.50;;;;;;5048352;28;20064;-66
2021/05/31 11:31:44;;;;;;;2.28;1.10;;;21.10;43.00;;;;;;5048602;28;20070;-66
2021/05/31 11:34:11;;;;;;;7.13;1.40;;;21.10;43.90;;;;;;5047573;28;20079;-66
2021/05/31 11:36:39;;;;;;;7.80;1.10;;;20.80;45.90;;;;;;5048280;28;20037;-67
2021/05/31 11:39:12;;;;;;;1.55;0.70;;;20.70;45.70;;;;;;5047839;28;20016;-65
2021/05/31 11:41:48;;;;;;;12.77;1.55;;;19.80;41.30;;;;;;5047968;28;20048;-66
2021/05/31 11:44:19;;;;;;;4.13;1.50;;;19.20;48.20;;;;;;5046945;28;20111;-66
2021/05/31 11:46:48;;;;;;;4.05;1.40;;;19.00;54.50;;;;;;5046224;28;20037;-66
2021/05/31 11:49:14;;;;;;;8.05;1.02;;;19.00;55.60;;;;;;5047365;28;20040;-66
2021/05/31 11:51:40;;;;;;;3.50;1.00;;;18.90;55.90;;;;;;5048224;28;20027;-67
2021/05/31 11:54:06;;;;;;;4.10;0.95;;;18.90;56.20;;;;;;5047761;28;20036;-66
2021/05/31 11:56:36;;;;;;;8.35;1.20;;;18.70;55.90;;;;;;5047964;28;20041;-66
2021/05/31 11:59:02;;;;;;;3.78;0.95;;;18.80;53.90;;;;;;5048114;28;20025;-66
2021/05/31 12:01:29;;;;;;;3.58;1.25;;;18.60;53.90;;;;;;5047997;28;20443;-66
2021/05/31 12:03:55;;;;;;;3.92;0.70;;;18.50;53.80;;;;;;5046120;28;20494;-66
2021/05/31 12:06:20;;;;;;;6.35;1.63;;;18.50;53.00;;;;;;5047955;28;20115;-66
2021/05/31 12:08:47;;;;;;;5.07;1.35;;;18.30;54.30;;;;;;5047350;28;20112;-66
2021/05/31 12:11:24;;;;;;;2.92;1.05;;;18.10;53.70;;;;;;5047747;28;20126;-67
2021/05/31 12:14:00;;;;;;;4.50;1.50;;;18.20;57.10;;;;;;5047782;28;20116;-69
2021/05/31 12:16:26;;;;;;;7.65;1.98;;;18.30;53.70;;;;;;5046377;28;20052;-66
2021/05/31 12:18:51;;;;;;;3.20;0.82;;;18.40;52.70;;;;;;5047096;28;20021;-66
2021/05/31 12:21:17;;;;;;;4.47;0.95;;;18.70;49.70;;;;;;5047214;28;20397;-67
2021/05/31 12:23:50;;;;;;;1.08;0.50;;;18.60;51.00;;;;;;5047580;28;20068;-66
2021/05/31 12:26:21;;;;;;;2.08;0.63;;;18.90;47.70;;;;;;5047091;28;20033;-66
2021/05/31 12:28:51;;;;;;;1.58;0.68;;;18.90;45.90;;;;;;5047150;28;20028;-66
2021/05/31 12:31:16;;;;;;;3.47;0.65;;;18.90;47.70;;;;;;5047337;28;20563;-67
2021/05/31 12:33:42;;;;;;;2.42;0.77;;;19.00;48.80;;;;;;5046534;28;20036;-65
2021/05/31 12:36:09;;;;;;;1.80;0.90;;;19.20;48.20;;;;;;5046948;28;20091;-65
2021/05/31 12:38:38;;;;;;;4.32;0.90;;;19.20;45.90;;;;;;5046971;28;20092;-67
2021/05/31 12:41:04;;;;;;;1.48;0.60;;;19.10;46.90;;;;;;5047157;28;20033;-66
2021/05/31 12:43:32;;;;;;;4.03;0.85;;;19.00;46.60;;;;;;5046823;28;20020;-66
2021/05/31 12:45:58;;;;;;;1.60;0.70;;;18.80;47.10;;;;;;5047145;28;20033;-66
2021/05/31 12:48:24;;;;;;;3.47;0.80;;;18.60;47.70;;;;;;5046384;28;20402;-65
2021/05/31 12:50:51;;;;;;;4.20;0.60;;;18.30;49.70;;;;;;5046878;28;20025;-65
2021/05/31 12:53:17;;;;;;;2.80;1.05;;;18.10;49.50;;;;;;5046775;28;20454;-66
2021/05/31 12:55:44;;;;;;;2.15;1.00;;;17.90;50.80;;;;;;5046953;28;20043;-66
2021/05/31 12:58:12;;;;;;;2.90;0.75;;;17.70;50.10;;;;;;5045986;28;20637;-66
2021/05/31 13:00:39;;;;;;;3.90;0.82;;;17.70;50.50;;;;;;5046409;28;20025;-66
2021/05/31 13:03:04;;;;;;;2.15;0.50;;;17.60;50.90;;;;;;5046202;28;20025;-66
2021/05/31 13:05:34;;;;;;;1.33;0.60;;;17.60;50.50;;;;;;5046837;28;20029;-66
2021/05/31 13:08:05;;;;;;;5.60;0.68;;;17.40;50.40;;;;;;5046506;28;20047;-65
2021/05/31 13:10:47;;;;;;;5.10;0.68;;;17.30;51.60;;;;;;5046678;28;20116;-66
2021/05/31 13:13:19;;;;;;;4.40;1.17;;;17.20;52.40;;;;;;5046564;28;20040;-66
2021/05/31 13:15:46;;;;;;;1.40;0.50;;;17.20;53.10;;;;;;5046278;28;20148;-66
2021/05/31 13:18:21;;;;;;;4.93;1.02;;;17.10;52.30;;;;;;5046010;28;20021;-65
2021/05/31 13:20:51;;;;;;;3.50;0.60;;;17.00;52.90;;;;;;5045948;28;20033;-65